createdAt,value
2023-05-24T00:00:08.124Z,99840.27
2023-05-24T00:01:10.489Z,99839.91
2023-05-24T00:02:12.609Z,99841.00
2023-05-24T00:03:14.805Z,99841.37
2023-05-24T00:04:17.253Z,99837.95
2023-05-24T00:05:19.631Z,99836.98
2023-05-24T00:06:21.981Z,99838.80
2023-05-24T00:07:24.272Z,99837.47
2023-05-24T00:08:26.942Z,99835.76
2023-05-24T00:10:40.163Z,99838.94
2023-05-24T00:11:42.541Z,99842.25
2023-05-24T00:12:45.184Z,99838.08
2023-05-24T00:13:48.482Z,99839.67
2023-05-24T00:14:51.353Z,99841.63
2023-05-24T00:15:53.571Z,99838.94
2023-05-24T00:16:55.981Z,99837.84
2023-05-24T00:17:58.442Z,99837.73
2023-05-24T00:19:00.719Z,99843.09
2023-05-24T00:20:05.185Z,99838.70
2023-05-24T00:21:07.778Z,99840.29
2023-05-24T00:22:10.033Z,99847.72
2023-05-24T00:23:12.745Z,99842.59
2023-05-24T00:24:15.041Z,99842.35
2023-05-24T00:25:17.323Z,99840.53
2023-05-24T00:26:19.583Z,99839.55
2023-05-24T00:27:23.794Z,99840.29
2023-05-24T00:28:28.499Z,99844.80
2023-05-24T00:29:32.303Z,99841.38
2023-05-24T00:30:35.782Z,99843.45
2023-05-24T00:31:38.537Z,99841.63
2023-05-24T00:32:41.030Z,99836.26
2023-05-24T00:33:43.183Z,99842.59
2023-05-24T00:34:45.602Z,99836.38
2023-05-24T00:35:47.966Z,99836.26
2023-05-24T00:36:50.188Z,99836.26
2023-05-24T00:37:52.616Z,99838.70
2023-05-24T00:38:54.901Z,99836.99
2023-05-24T00:39:57.077Z,99841.38
2023-05-24T00:40:59.386Z,99839.80
2023-05-24T00:42:02.435Z,99844.30
2023-05-24T00:43:04.877Z,99842.83
2023-05-24T00:44:07.807Z,99849.90
2023-05-24T00:45:10.458Z,99854.41
2023-05-24T00:46:20.132Z,99849.66
2023-05-24T00:47:23.403Z,99850.02
2023-05-24T00:48:26.320Z,99856.00
2023-05-24T00:49:29.369Z,99846.25
2023-05-24T00:50:31.955Z,99856.97
2023-05-24T00:51:35.524Z,99841.98
2023-05-24T00:52:38.151Z,99843.69
2023-05-24T00:53:43.781Z,99846.86
2023-05-24T00:54:46.430Z,99848.93
2023-05-24T00:55:49.209Z,99845.66
2023-05-24T00:56:52.206Z,99849.20
2023-05-24T00:57:58.583Z,99846.25
2023-05-24T00:59:01.408Z,99851.88
2023-05-24T01:00:07.419Z,99851.73
2023-05-24T01:01:09.971Z,99850.17
2023-05-24T01:02:13.108Z,99850.88
2023-05-24T01:03:16.266Z,99847.34
2023-05-24T01:04:19.817Z,99852.58
2023-05-24T01:05:22.895Z,99853.44
2023-05-24T01:06:25.661Z,99854.56
2023-05-24T01:07:31.513Z,99847.10
2023-05-24T01:10:25.718Z,99841.87
2023-05-24T01:11:37.070Z,99846.14
2023-05-24T01:13:03.108Z,99840.54
2023-05-24T01:14:33.767Z,99844.81
2023-05-24T01:16:02.778Z,99846.52
2023-05-24T01:17:33.451Z,99847.95
2023-05-24T01:18:42.938Z,99850.52
2023-05-24T01:20:01.237Z,99852.23
2023-05-24T01:21:13.136Z,99850.75
2023-05-24T01:22:19.425Z,99851.61
2023-05-24T01:23:48.908Z,99854.05
2023-05-24T01:25:20.828Z,99854.68
2023-05-24T01:26:38.754Z,99856.23
2023-05-24T01:27:43.941Z,99853.32
2023-05-24T01:28:48.076Z,99859.06
2023-05-24T01:29:50.959Z,99862.61
2023-05-24T01:30:55.208Z,99858.45
2023-05-24T01:31:59.425Z,99857.24
2023-05-24T01:33:02.277Z,99852.12
2023-05-24T01:34:04.667Z,99857.48
2023-05-24T01:35:07.644Z,99855.77
2023-05-24T01:36:12.417Z,99853.95
2023-05-24T01:37:15.028Z,99858.57
2023-05-24T01:38:17.193Z,99863.31
2023-05-24T01:39:21.143Z,99860.98
2023-05-24T01:40:24.151Z,99855.63
2023-05-24T01:44:08.866Z,99853.20
2023-05-24T01:45:35.845Z,99854.66
2023-05-24T01:46:38.750Z,99854.53
2023-05-24T01:47:46.755Z,99855.03
2023-05-24T01:48:59.709Z,99854.19
2023-05-24T01:50:17.739Z,99853.33
2023-05-24T01:51:23.765Z,99854.30
2023-05-24T01:52:29.935Z,99856.98
2023-05-24T01:54:50.667Z,99867.82
2023-05-24T01:55:58.293Z,99855.74
2023-05-24T01:57:04.673Z,99864.28
2023-05-24T01:58:09.314Z,99861.61
2023-05-24T01:59:13.222Z,99864.28
2023-05-24T02:00:19.065Z,99861.61
2023-05-24T02:01:22.251Z,99859.04
2023-05-24T02:02:24.972Z,99861.48
2023-05-24T02:03:27.522Z,99858.69
2023-05-24T02:04:31.042Z,99863.20
2023-05-24T02:05:33.500Z,99856.01
2023-05-24T02:06:37.843Z,99860.63
2023-05-24T02:07:42.026Z,99860.40
2023-05-24T02:08:44.224Z,99854.19
2023-05-24T02:09:46.407Z,99855.03
2023-05-24T02:10:49.146Z,99855.63
2023-05-24T02:11:53.317Z,99860.98
2023-05-24T02:12:55.503Z,99860.75
2023-05-24T02:13:57.679Z,99862.23
2023-05-24T02:14:59.979Z,99866.50
2023-05-24T02:16:02.386Z,99863.58
2023-05-24T02:17:04.968Z,99865.28
2023-05-24T02:18:07.130Z,99867.97
2023-05-24T02:19:10.856Z,99866.27
2023-05-24T02:20:15.012Z,99866.96
2023-05-24T02:21:17.723Z,99867.22
2023-05-24T02:22:20.365Z,99865.75
2023-05-24T02:23:22.667Z,99861.86
2023-05-24T02:24:25.135Z,99865.28
2023-05-24T02:25:28.029Z,99864.03
2023-05-24T02:26:30.972Z,99867.45
2023-05-24T02:27:33.946Z,99873.55
2023-05-24T02:28:37.697Z,99878.67
2023-05-24T02:29:40.004Z,99874.78
2023-05-24T02:30:42.667Z,99879.17
2023-05-24T02:31:45.782Z,99877.46
2023-05-24T02:32:48.118Z,99885.51
2023-05-24T02:33:50.880Z,99887.45
2023-05-24T02:34:53.238Z,99883.56
2023-05-24T02:35:56.112Z,99884.27
2023-05-24T02:36:58.483Z,99876.37
2023-05-24T02:38:00.901Z,99881.85
2023-05-24T02:39:03.256Z,99882.09
2023-05-24T02:40:06.918Z,99880.38
2023-05-24T02:41:09.320Z,99883.30
2023-05-24T02:42:11.781Z,99881.59
2023-05-24T02:43:14.597Z,99883.30
2023-05-24T02:44:16.813Z,99887.20
2023-05-24T02:45:19.224Z,99882.56
2023-05-24T02:46:21.548Z,99893.41
2023-05-24T02:47:23.969Z,99883.54
2023-05-24T02:48:26.517Z,99882.56
2023-05-24T02:49:28.731Z,99882.56
2023-05-24T02:50:31.076Z,99884.16
2023-05-24T02:51:33.465Z,99882.56
2023-05-24T02:52:35.777Z,99877.33
2023-05-24T02:53:37.977Z,99878.91
2023-05-24T02:54:40.219Z,99881.98
2023-05-24T02:55:42.364Z,99879.15
2023-05-24T02:56:44.688Z,99887.94
2023-05-24T02:57:48.982Z,99885.98
2023-05-24T02:58:51.435Z,99887.08
2023-05-24T02:59:53.584Z,99884.28
2023-05-24T03:00:56.086Z,99882.33
2023-05-24T03:01:58.690Z,99881.59
2023-05-24T03:03:01.183Z,99882.09
2023-05-24T03:04:04.214Z,99884.04
2023-05-24T03:05:07.234Z,99883.06
2023-05-24T03:06:10.252Z,99882.95
2023-05-24T03:07:12.789Z,99882.70
2023-05-24T03:08:15.346Z,99881.85
2023-05-24T03:09:17.731Z,99879.17
2023-05-24T03:10:20.866Z,99877.34
2023-05-24T03:11:23.666Z,99879.87
2023-05-24T03:12:26.452Z,99882.70
2023-05-24T03:13:28.944Z,99880.73
2023-05-24T03:14:31.464Z,99880.88
2023-05-24T03:15:34.140Z,99876.09
2023-05-24T03:16:37.556Z,99872.31
2023-05-24T03:17:39.782Z,99880.98
2023-05-24T03:18:42.171Z,99880.86
2023-05-24T03:19:45.637Z,99887.69
2023-05-24T03:20:48.320Z,99884.00
2023-05-24T03:21:51.028Z,99885.50
2023-05-24T03:22:53.400Z,99886.11
2023-05-24T03:23:55.812Z,99885.99
2023-05-24T03:24:58.006Z,99879.41
2023-05-24T03:26:00.969Z,99884.16
2023-05-24T03:27:05.970Z,99889.29
2023-05-24T03:28:08.210Z,99887.70
2023-05-24T03:29:10.357Z,99886.84
2023-05-24T03:30:15.332Z,99888.44
2023-05-24T03:31:20.118Z,99885.59
2023-05-24T03:32:23.308Z,99887.45
2023-05-24T03:33:25.709Z,99885.88
2023-05-24T03:34:28.097Z,99882.22
2023-05-24T03:35:30.540Z,99890.27
2023-05-24T03:36:33.260Z,99884.77
2023-05-24T03:37:35.478Z,99889.98
2023-05-24T03:38:37.672Z,99890.72
2023-05-24T03:39:39.951Z,99886.08
2023-05-24T03:40:49.924Z,99885.11
2023-05-24T03:41:53.588Z,99881.81
2023-05-24T03:42:56.017Z,99876.08
2023-05-24T03:44:00.544Z,99880.72
2023-05-24T03:45:05.446Z,99885.96
2023-05-24T03:46:08.125Z,99882.30
2023-05-24T03:47:10.475Z,99881.33
2023-05-24T03:48:12.856Z,99884.87
2023-05-24T03:49:15.091Z,99884.87
2023-05-24T03:50:18.158Z,99883.03
2023-05-24T03:51:20.453Z,99886.57
2023-05-24T03:52:23.996Z,99885.48
2023-05-24T03:53:26.223Z,99893.65
2023-05-24T03:54:29.668Z,99891.82
2023-05-24T03:55:32.019Z,99887.42
2023-05-24T03:56:34.414Z,99882.91
2023-05-24T03:57:37.144Z,99892.80
2023-05-24T03:58:39.881Z,99884.02
2023-05-24T03:59:42.376Z,99892.19
2023-05-24T04:00:44.635Z,99898.53
2023-05-24T04:01:48.335Z,99901.22
2023-05-24T04:02:50.695Z,99900.36
2023-05-24T04:03:53.178Z,99902.06
2023-05-24T04:04:55.467Z,99901.22
2023-05-24T04:05:57.904Z,99894.98
2023-05-24T04:07:00.137Z,99893.04
2023-05-24T04:08:03.119Z,99891.20
2023-05-24T04:09:05.333Z,99897.67
2023-05-24T04:10:08.254Z,99902.19
2023-05-24T04:11:10.694Z,99899.27
2023-05-24T04:12:12.903Z,99902.80
2023-05-24T04:13:17.044Z,99895.60
2023-05-24T04:14:19.473Z,99898.28
2023-05-24T04:15:22.870Z,99900.36
2023-05-24T04:16:25.697Z,99895.84
2023-05-24T04:17:28.300Z,99901.34
2023-05-24T04:18:30.930Z,99900.60
2023-05-24T04:19:33.257Z,99904.02
2023-05-24T04:20:35.485Z,99899.27
2023-05-24T04:21:38.470Z,99898.41
2023-05-24T04:22:41.282Z,99905.73
2023-05-24T04:23:43.619Z,99901.22
2023-05-24T04:24:46.660Z,99904.63
2023-05-24T04:25:49.833Z,99908.90
2023-05-24T04:26:52.300Z,99906.22
2023-05-24T04:27:54.456Z,99912.31
2023-05-24T04:28:57.094Z,99902.44
2023-05-24T04:29:59.430Z,99902.44
2023-05-24T04:31:01.902Z,99904.97
2023-05-24T04:32:04.362Z,99908.38
2023-05-24T04:33:06.677Z,99913.51
2023-05-24T04:34:10.155Z,99904.48
2023-05-24T04:35:12.353Z,99908.02
2023-05-24T04:36:15.031Z,99911.31
2023-05-24T04:37:19.110Z,99911.31
2023-05-24T04:38:22.771Z,99907.64
2023-05-24T04:39:25.342Z,99911.06
2023-05-24T04:40:28.092Z,99904.68
2023-05-24T04:41:30.858Z,99916.16
2023-05-24T04:42:34.424Z,99907.13
2023-05-24T04:43:36.766Z,99911.27
2023-05-24T04:44:42.721Z,99912.00
2023-05-24T04:45:44.858Z,99910.05
2023-05-24T04:46:47.133Z,99917.13
2023-05-24T04:47:49.902Z,99920.51
2023-05-24T04:48:52.583Z,99922.09
2023-05-24T04:49:55.472Z,99924.53
2023-05-24T04:50:57.958Z,99925.38
2023-05-24T04:52:00.088Z,99920.74
2023-05-24T04:53:02.304Z,99916.34
2023-05-24T04:54:05.330Z,99921.59
2023-05-24T04:55:08.102Z,99923.19
2023-05-24T04:56:10.434Z,99927.70
2023-05-24T04:57:12.651Z,99923.91
2023-05-24T04:58:16.091Z,99929.00
2023-05-24T04:59:18.561Z,99929.98
2023-05-24T05:00:21.424Z,99927.05
2023-05-24T05:01:23.783Z,99924.11
2023-05-24T05:02:26.134Z,99930.21
2023-05-24T05:03:28.934Z,99932.77
2023-05-24T05:04:32.291Z,99931.67
2023-05-24T05:05:34.569Z,99932.37
2023-05-24T05:06:36.825Z,99928.70
2023-05-24T05:07:39.184Z,99926.02
2023-05-24T05:08:41.621Z,99926.49
2023-05-24T05:09:43.820Z,99929.91
2023-05-24T05:10:47.297Z,99929.66
2023-05-24T05:11:49.900Z,99932.06
2023-05-24T05:12:52.917Z,99930.10
2023-05-24T05:13:55.648Z,99926.34
2023-05-24T05:14:57.790Z,99927.06
2023-05-24T05:16:00.088Z,99927.66
2023-05-24T05:17:02.555Z,99923.88
2023-05-24T05:18:04.632Z,99932.63
2023-05-24T05:19:06.969Z,99926.14
2023-05-24T05:20:09.633Z,99933.23
2023-05-24T05:21:11.934Z,99924.19
2023-05-24T05:22:14.187Z,99922.22
2023-05-24T05:23:16.481Z,99921.11
2023-05-24T05:24:18.830Z,99930.76
2023-05-24T05:25:21.301Z,99927.94
2023-05-24T05:26:23.541Z,99927.94
2023-05-24T05:27:27.080Z,99927.94
2023-05-24T05:28:29.311Z,99924.11
2023-05-24T05:29:32.203Z,99924.84
2023-05-24T05:30:34.357Z,99923.85
2023-05-24T05:31:36.591Z,99922.02
2023-05-24T05:32:38.963Z,99928.25
2023-05-24T05:33:41.292Z,99929.70
2023-05-24T05:34:43.761Z,99930.42
2023-05-24T05:35:45.972Z,99931.15
2023-05-24T05:36:48.895Z,99926.20
2023-05-24T05:37:51.905Z,99926.92
2023-05-24T05:38:54.154Z,99924.84
2023-05-24T05:39:56.504Z,99934.48
2023-05-24T05:40:58.806Z,99935.17
2023-05-24T05:42:01.778Z,99932.22
2023-05-24T05:43:04.231Z,99930.98
2023-05-24T05:44:06.549Z,99935.12
2023-05-24T05:45:09.477Z,99944.60
2023-05-24T05:46:12.031Z,99940.66
2023-05-24T05:47:14.743Z,99941.25
2023-05-24T05:48:17.001Z,99948.94
2023-05-24T05:49:19.292Z,99950.34
2023-05-24T05:50:21.486Z,99948.73
2023-05-24T05:51:23.692Z,99951.98
2023-05-24T05:52:26.334Z,99952.44
2023-05-24T05:53:29.056Z,99952.77
2023-05-24T05:54:32.219Z,99955.03
2023-05-24T05:55:34.581Z,99953.52
2023-05-24T05:56:36.942Z,99953.93
2023-05-24T05:57:39.581Z,99952.54
2023-05-24T05:58:42.283Z,99952.14
2023-05-24T05:59:44.748Z,99956.09
2023-05-24T06:00:47.618Z,99947.75
2023-05-24T06:01:50.925Z,99959.96
2023-05-24T06:02:53.366Z,99946.08
2023-05-24T06:03:55.763Z,99958.27
2023-05-24T06:04:58.222Z,99957.72
2023-05-24T06:06:00.581Z,99957.14
2023-05-24T06:07:03.772Z,99953.32
2023-05-24T06:08:06.051Z,99957.31
2023-05-24T06:09:08.292Z,99950.66
2023-05-24T06:10:12.283Z,99959.19
2023-05-24T06:11:15.111Z,99957.78
2023-05-24T06:12:17.898Z,99959.03
2023-05-24T06:13:20.196Z,99943.30
2023-05-24T06:14:22.735Z,99953.39
2023-05-24T06:15:25.162Z,99943.85
2023-05-24T06:16:28.109Z,99948.97
2023-05-24T06:17:30.868Z,99954.80
2023-05-24T06:18:33.128Z,99951.50
2023-05-24T06:19:35.417Z,99948.37
2023-05-24T06:20:37.882Z,99949.80
2023-05-24T06:21:40.573Z,99955.45
2023-05-24T06:22:46.256Z,99945.23
2023-05-24T06:23:53.732Z,99950.88
2023-05-24T06:24:59.220Z,99947.61
2023-05-24T06:26:04.912Z,99956.84
2023-05-24T06:27:13.380Z,99946.61
2023-05-24T06:28:20.581Z,99948.02
2023-05-24T06:29:28.798Z,99947.45
2023-05-24T06:30:32.545Z,99945.98
2023-05-24T06:31:37.454Z,99951.66
2023-05-24T06:32:44.510Z,99948.67
2023-05-24T06:34:02.746Z,99952.47
2023-05-24T06:34:58.397Z,99953.02
2023-05-24T06:36:01.774Z,99944.48
2023-05-24T06:37:06.355Z,99942.31
2023-05-24T06:38:10.899Z,99946.42
2023-05-24T06:39:15.049Z,99944.42
2023-05-24T06:40:21.247Z,99946.69
2023-05-24T06:41:24.613Z,99946.36
2023-05-24T06:42:31.885Z,99946.91
2023-05-24T06:43:37.527Z,99944.62
2023-05-24T06:44:43.698Z,99944.30
2023-05-24T06:45:49.772Z,99945.55
2023-05-24T06:46:57.272Z,99953.22
2023-05-24T06:48:02.053Z,99942.80
2023-05-24T06:49:07.338Z,99953.32
2023-05-24T06:50:22.097Z,99943.91
2023-05-24T06:51:27.152Z,99947.31
2023-05-24T06:52:38.959Z,99945.16
2023-05-24T06:53:45.705Z,99956.20
2023-05-24T06:54:51.016Z,99953.34
2023-05-24T06:55:57.737Z,99951.19
2023-05-24T06:56:59.994Z,99953.75
2023-05-24T06:58:07.484Z,99947.16
2023-05-24T06:59:15.277Z,99951.41
2023-05-24T07:00:25.888Z,99949.41
2023-05-24T07:01:30.299Z,99945.24
2023-05-24T07:02:35.550Z,99943.91
2023-05-24T07:03:39.082Z,99951.56
2023-05-24T07:04:49.635Z,99944.84
2023-05-24T07:05:56.812Z,99947.09
2023-05-24T07:07:03.024Z,99949.16
2023-05-24T07:08:11.386Z,99958.52
2023-05-24T07:09:15.072Z,99952.80
2023-05-24T07:10:21.286Z,99950.61
2023-05-24T07:11:30.908Z,99953.00
2023-05-24T07:12:43.879Z,99951.72
2023-05-24T07:13:46.568Z,99951.41
2023-05-24T07:14:50.007Z,99952.63
2023-05-24T07:15:55.931Z,99953.16
2023-05-24T07:17:03.272Z,99955.41
2023-05-24T07:18:08.562Z,99949.64
2023-05-24T07:19:17.916Z,99958.16
2023-05-24T07:20:22.708Z,99954.98
2023-05-24T07:21:29.023Z,99961.75
2023-05-24T07:22:35.241Z,99952.63
2023-05-24T07:23:39.614Z,99950.30
2023-05-24T07:24:46.560Z,99948.28
2023-05-24T07:25:53.063Z,99945.25
2023-05-24T07:26:59.060Z,99952.03
2023-05-24T07:28:19.040Z,99947.84
2023-05-24T07:29:25.757Z,99951.08
2023-05-24T07:30:46.726Z,99946.00
2023-05-24T07:31:35.401Z,99952.27
2023-05-24T07:32:40.254Z,99947.55
2023-05-24T07:33:48.226Z,99956.21
2023-05-24T07:34:52.837Z,99950.79
2023-05-24T07:35:58.560Z,99956.21
2023-05-24T07:37:09.910Z,99942.50
2023-05-24T07:38:13.367Z,99950.79
2023-05-24T07:39:20.774Z,99955.20
2023-05-24T07:40:28.084Z,99951.64
2023-05-24T07:41:36.433Z,99954.19
2023-05-24T07:42:44.656Z,99952.49
2023-05-24T07:43:52.405Z,99954.19
2023-05-24T07:45:00.665Z,99960.18
2023-05-24T07:46:04.744Z,99950.19
2023-05-24T07:47:10.607Z,99950.38
2023-05-24T07:48:15.490Z,99954.63
2023-05-24T07:49:22.261Z,99947.18
2023-05-24T07:50:29.305Z,99953.45
2023-05-24T07:51:32.568Z,99952.60
2023-05-24T07:52:36.887Z,99947.18
2023-05-24T07:55:06.457Z,99952.60
2023-05-24T07:56:17.245Z,99950.90
2023-05-24T07:57:21.209Z,99947.66
2023-05-24T07:58:27.648Z,99949.52
2023-05-24T07:59:34.592Z,99951.54
2023-05-24T08:00:39.563Z,99954.94
2023-05-24T08:01:49.037Z,99953.77
2023-05-24T08:02:56.428Z,99957.02
2023-05-24T08:04:03.557Z,99953.98
2023-05-24T08:05:07.917Z,99950.76
2023-05-24T08:06:13.032Z,99949.95
2023-05-24T08:07:23.698Z,99947.58
2023-05-24T08:08:28.704Z,99957.45
2023-05-24T08:09:41.879Z,99953.74
2023-05-24T08:10:48.916Z,99954.79
2023-05-24T08:11:56.229Z,99956.66
2023-05-24T08:13:00.616Z,99963.30
2023-05-24T08:14:11.218Z,99955.52
2023-05-24T08:15:14.112Z,99963.33
2023-05-24T08:16:19.133Z,99957.73
2023-05-24T08:17:24.247Z,99959.59
2023-05-24T08:18:31.181Z,99963.33
2023-05-24T08:19:36.893Z,99958.06
2023-05-24T08:20:41.499Z,99959.23
2023-05-24T08:21:46.502Z,99960.58
2023-05-24T08:22:52.487Z,99959.20
2023-05-24T08:23:58.820Z,99964.11
2023-05-24T08:25:20.476Z,99958.84
2023-05-24T08:26:32.078Z,99965.28
2023-05-24T08:29:03.052Z,99965.81
2023-05-24T08:30:12.132Z,99958.03
2023-05-24T08:31:19.671Z,99951.09
2023-05-24T08:32:27.306Z,99953.16
2023-05-24T08:33:36.227Z,99951.81
2023-05-24T08:34:42.686Z,99950.27
2023-05-24T08:35:47.653Z,99958.60
2023-05-24T08:36:52.773Z,99949.97
2023-05-24T08:37:58.601Z,99953.16
2023-05-24T08:39:05.380Z,99957.93
2023-05-24T08:41:47.531Z,99944.70
2023-05-24T08:42:57.360Z,99943.48
2023-05-24T08:44:04.194Z,99944.00
2023-05-24T08:45:16.405Z,99946.38
2023-05-24T08:46:22.536Z,99945.20
2023-05-24T08:47:31.779Z,99947.37
2023-05-24T08:48:39.714Z,99951.80
2023-05-24T08:49:46.613Z,99947.37
2023-05-24T08:50:57.461Z,99948.39
2023-05-24T08:52:06.629Z,99946.90
2023-05-24T08:53:12.389Z,99947.06
2023-05-24T08:54:18.039Z,99945.70
2023-05-24T08:55:33.944Z,99948.92
2023-05-24T08:56:39.344Z,99944.88
2023-05-24T08:57:49.340Z,99944.36
2023-05-24T08:58:57.052Z,99938.24
2023-05-24T09:00:03.972Z,99939.42
2023-05-24T09:01:10.674Z,99948.91
2023-05-24T09:02:20.413Z,99950.81
2023-05-24T09:03:26.248Z,99943.00
2023-05-24T09:04:34.279Z,99950.46
2023-05-24T09:05:42.328Z,99952.66
2023-05-24T09:06:47.556Z,99953.83
2023-05-24T09:07:56.143Z,99951.12
2023-05-24T09:09:06.779Z,99953.15
2023-05-24T09:10:14.313Z,99951.12
2023-05-24T09:11:22.726Z,99949.25
2023-05-24T09:12:38.085Z,99949.77
2023-05-24T09:13:45.721Z,99947.06
2023-05-24T09:15:02.371Z,99942.48
2023-05-24T09:30:48.326Z,99950.09
2023-05-24T09:31:54.248Z,99961.30
2023-05-24T09:32:58.847Z,99950.77
2023-05-24T09:34:02.227Z,99959.08
2023-05-24T09:35:10.115Z,99946.82
2023-05-24T09:36:16.460Z,99948.86
2023-05-24T09:37:22.749Z,99951.06
2023-05-24T09:38:26.017Z,99954.08
2023-05-24T09:39:28.745Z,99950.00
2023-05-24T09:40:31.080Z,99954.06
2023-05-24T09:41:33.811Z,99954.71
2023-05-24T09:42:36.122Z,99958.11
2023-05-24T09:43:49.604Z,99953.52
2023-05-24T09:45:07.037Z,99956.41
2023-05-24T09:46:10.946Z,99952.84
2023-05-24T09:47:14.621Z,99952.67
2023-05-24T09:48:17.048Z,99951.65
2023-05-24T09:49:20.968Z,99956.06
2023-05-24T09:50:23.524Z,99957.77
2023-05-24T09:51:26.829Z,99953.34
2023-05-24T09:52:29.274Z,99966.09
2023-05-24T09:53:32.954Z,99965.59
2023-05-24T09:54:36.146Z,99959.12
2023-05-24T09:55:39.110Z,99958.48
2023-05-24T09:56:41.609Z,99956.78
2023-05-24T09:57:44.978Z,99963.92
2023-05-24T09:58:47.886Z,99970.21
2023-05-24T09:59:50.678Z,99967.66
2023-05-24T10:00:56.689Z,99965.97
2023-05-24T10:02:09.863Z,99965.45
2023-05-24T10:03:13.481Z,99968.00
2023-05-24T10:04:16.339Z,99962.56
2023-05-24T10:05:18.873Z,99965.29
2023-05-24T10:06:21.097Z,99962.73
2023-05-24T10:07:24.662Z,99961.21
2023-05-24T10:08:27.368Z,99966.48
2023-05-24T10:09:30.973Z,99965.63
2023-05-24T10:10:33.494Z,99966.31
2023-05-24T10:11:36.596Z,99964.27
2023-05-24T10:12:40.507Z,99968.13
2023-05-24T10:13:43.454Z,99959.46
2023-05-24T10:14:45.787Z,99965.94
2023-05-24T10:15:48.479Z,99971.50
2023-05-24T10:16:50.825Z,99963.50
2023-05-24T10:17:57.249Z,99967.36
2023-05-24T10:18:59.757Z,99958.50
2023-05-24T10:20:02.574Z,99965.30
2023-05-24T10:21:10.059Z,99958.27
2023-05-24T10:22:14.848Z,99955.87
2023-05-24T10:23:19.977Z,99960.58
2023-05-24T10:24:25.991Z,99957.33
2023-05-24T10:25:29.877Z,99955.95
2023-05-24T10:26:32.754Z,99952.02
2023-05-24T10:27:36.313Z,99947.22
2023-05-24T10:28:44.951Z,99954.18
2023-05-24T10:31:21.572Z,99964.04
2023-05-24T10:32:25.172Z,99959.52
2023-05-24T10:33:29.294Z,99961.74
2023-05-24T10:34:32.265Z,99965.67
2023-05-24T10:35:35.362Z,99968.56
2023-05-24T10:36:38.819Z,99967.25
2023-05-24T10:37:42.541Z,99968.45
2023-05-24T10:38:48.260Z,99971.52
2023-05-24T10:39:50.623Z,99964.56
2023-05-24T10:40:53.294Z,99961.16
2023-05-24T10:41:56.122Z,99963.21
2023-05-24T10:42:58.389Z,99962.74
2023-05-24T10:44:08.408Z,99968.36
2023-05-24T10:45:26.604Z,99968.88
2023-05-24T10:46:28.975Z,99968.03
2023-05-24T10:47:31.315Z,99978.41
2023-05-24T10:49:54.055Z,99970.58
2023-05-24T10:50:56.561Z,99973.55
2023-05-24T10:52:04.096Z,99968.28
2023-05-24T10:53:16.796Z,99969.30
2023-05-24T10:54:21.447Z,99967.95
2023-05-24T10:55:25.071Z,99972.88
2023-05-24T10:56:27.408Z,99973.05
2023-05-24T10:57:29.705Z,99974.80
2023-05-24T10:58:56.601Z,99969.02
2023-05-24T11:00:02.443Z,99971.41
2023-05-24T11:01:08.469Z,99974.84
2023-05-24T11:02:11.416Z,99975.52
2023-05-24T11:03:14.053Z,99974.00
2023-05-24T11:04:18.414Z,99979.97
2023-05-24T11:05:21.231Z,99983.71
2023-05-24T11:06:27.853Z,99982.35
2023-05-24T11:07:30.293Z,99985.41
2023-05-24T11:08:34.514Z,99980.48
2023-05-24T11:09:38.352Z,99983.40
2023-05-24T11:10:40.828Z,99981.87
2023-05-24T11:11:47.380Z,99980.34
2023-05-24T11:14:30.569Z,99985.09
2023-05-24T11:15:33.393Z,99984.09
2023-05-24T11:16:40.043Z,99987.46
2023-05-24T11:18:09.480Z,99987.46
2023-05-24T11:19:26.404Z,99989.16
2023-05-24T11:20:29.064Z,99991.88
2023-05-24T11:21:31.528Z,99995.27
2023-05-24T11:22:34.832Z,99990.33
2023-05-24T11:23:38.300Z,99982.34
2023-05-24T11:24:42.011Z,99983.36
2023-05-24T11:25:47.493Z,99988.11
2023-05-24T11:26:50.533Z,99980.66
2023-05-24T11:27:53.162Z,99974.20
2023-05-24T11:28:55.766Z,99982.86
2023-05-24T11:29:58.803Z,99972.52
2023-05-24T11:31:05.938Z,99976.26
2023-05-24T11:32:08.671Z,99975.59
2023-05-24T11:33:22.362Z,99973.86
2023-05-24T11:34:24.815Z,99973.02
2023-05-24T11:35:27.101Z,99976.23
2023-05-24T11:36:30.416Z,99968.73
2023-05-24T11:37:45.456Z,99972.98
2023-05-24T11:38:37.743Z,99970.44
2023-05-24T11:39:40.313Z,99964.69
2023-05-24T11:41:55.351Z,99969.24
2023-05-24T11:42:58.271Z,99971.48
2023-05-24T11:44:00.685Z,99976.92
2023-05-24T11:45:04.461Z,99974.20
2023-05-24T11:46:07.445Z,99964.86
2023-05-24T11:47:09.878Z,99974.54
2023-05-24T11:48:12.253Z,99955.31
2023-05-24T11:49:27.163Z,99959.56
2023-05-24T11:50:33.103Z,99958.20
2023-05-24T11:51:35.120Z,99956.84
2023-05-24T11:52:40.584Z,99954.42
2023-05-24T11:53:44.619Z,99952.72
2023-05-24T11:54:47.903Z,99955.09
2023-05-24T11:55:52.109Z,99953.52
2023-05-24T11:56:55.021Z,99950.28
2023-05-24T11:57:58.488Z,99956.08
2023-05-24T11:59:09.434Z,99953.66
2023-05-24T12:00:15.437Z,99952.29
2023-05-24T12:01:25.132Z,99948.88
2023-05-24T12:02:29.716Z,99951.54
2023-05-24T12:03:32.741Z,99940.98
2023-05-24T12:04:35.761Z,99938.55
2023-05-24T12:05:38.419Z,99939.55
2023-05-24T12:06:42.888Z,99944.62
2023-05-24T12:07:45.291Z,99935.06
2023-05-24T12:08:48.325Z,99934.70
2023-05-24T12:09:51.250Z,99929.75
2023-05-24T12:10:53.914Z,99933.61
2023-05-24T12:11:56.667Z,99929.50
2023-05-24T12:12:59.086Z,99927.13
2023-05-24T12:14:02.040Z,99929.31
2023-05-24T12:15:07.162Z,99910.89
2023-05-24T12:16:11.283Z,99923.30
2023-05-24T12:17:14.663Z,99915.80
2023-05-24T12:18:23.634Z,99910.17
2023-05-24T12:19:33.901Z,99911.88
2023-05-24T12:20:37.902Z,99915.63
2023-05-24T12:21:43.248Z,99915.98
2023-05-24T12:22:53.142Z,99920.58
2023-05-24T12:23:55.839Z,99916.73
2023-05-24T12:24:58.606Z,99919.63
2023-05-24T12:26:04.632Z,99921.69
2023-05-24T12:27:08.522Z,99923.56
2023-05-24T12:28:13.075Z,99916.23
2023-05-24T12:29:16.913Z,99917.27
2023-05-24T12:30:24.876Z,99917.27
2023-05-24T12:31:27.606Z,99918.11
2023-05-24T12:32:30.760Z,99918.26
2023-05-24T12:33:33.537Z,99922.19
2023-05-24T12:34:35.773Z,99932.90
2023-05-24T12:35:42.627Z,99921.34
2023-05-24T12:36:45.910Z,99914.02
2023-05-24T12:37:49.646Z,99918.26
2023-05-24T12:38:52.299Z,99917.94
2023-05-24T12:39:54.912Z,99907.72
2023-05-24T12:41:08.154Z,99911.74
2023-05-24T12:42:04.303Z,99907.63
2023-05-24T12:43:07.689Z,99922.59
2023-05-24T12:44:11.199Z,99914.06
2023-05-24T12:45:13.568Z,99918.48
2023-05-24T12:46:16.280Z,99914.06
2023-05-24T12:47:18.514Z,99918.17
2023-05-24T12:48:21.004Z,99910.17
2023-05-24T12:49:25.093Z,99921.07
2023-05-24T12:50:28.065Z,99919.38
2023-05-24T12:51:31.057Z,99913.92
2023-05-24T12:52:33.330Z,99911.02
2023-05-24T12:53:36.050Z,99911.69
2023-05-24T12:54:38.079Z,99908.79
2023-05-24T12:55:40.760Z,99906.73
2023-05-24T12:56:42.961Z,99913.66
2023-05-24T12:57:46.317Z,99913.30
2023-05-24T12:58:48.914Z,99908.70
2023-05-24T12:59:51.090Z,99905.80
2023-05-24T13:00:53.311Z,99913.97
2023-05-24T13:01:56.019Z,99904.11
2023-05-24T13:02:58.413Z,99903.08
2023-05-24T13:04:00.800Z,99901.20
2023-05-24T13:05:03.378Z,99902.05
2023-05-24T13:06:06.733Z,99905.44
2023-05-24T13:07:09.525Z,99909.86
2023-05-24T13:08:12.202Z,99908.16
2023-05-24T13:09:14.835Z,99902.53
2023-05-24T13:10:18.676Z,99902.36